Time;durP1;ratioP1;P1;durP2;ratioP2;P2;SDS_P1;SDS_P2;PMS_P1;PMS_P2;Temp;Humidity;BMP_temperature;BMP_pressure;BME280_temperature;BME280_humidity;BME280_pressure;Samples;Min_cycle;Max_cycle;Signal;HPM_P1;HPM_P2
2023/12/02 00:00:57;;;;;;;17.13;10.83;;;-1.80;99.90;;;-141.84;94.78;23581.63;5011800;28;20253;-68
2023/12/02 00:03:25;;;;;;;16.10;10.73;;;-1.80;99.90;;;-141.84;94.41;24084.13;5011899;28;20269;-67
2023/12/02 00:05:53;;;;;;;15.97;11.00;;;-1.80;99.90;;;-141.84;95.91;26147.75;5011450;28;20570;-67
2023/12/02 00:08:23;;;;;;;15.50;11.00;;;-1.90;99.90;;;-141.84;94.95;24635.53;5011658;28;20258;-67
2023/12/02 00:10:52;;;;;;;15.53;11.30;;;-1.90;99.90;;;-141.84;96.51;28933.53;5012291;28;20202;-68
2023/12/02 00:13:21;;;;;;;14.53;9.83;;;-2.00;99.90;;;-141.84;94.82;24837.00;5012046;28;20226;-65
2023/12/02 00:15:49;;;;;;;16.70;11.40;;;-1.90;99.90;;;-141.84;95.46;25850.56;5011378;28;20362;-66
2023/12/02 00:18:17;;;;;;;16.30;11.47;;;-1.90;99.90;;;-141.84;95.72;27340.81;5011213;28;20254;-72
2023/12/02 00:20:45;;;;;;;18.13;11.77;;;-1.90;99.90;;;-141.84;94.71;23988.50;5011962;28;20257;-73
2023/12/02 00:23:14;;;;;;;17.97;11.07;;;-1.90;99.90;;;-141.84;93.38;21403.47;5011169;28;20313;-77
2023/12/02 00:25:42;;;;;;;18.73;11.53;;;-1.90;99.90;;;-141.84;94.99;23357.84;5011152;28;20727;-75
2023/12/02 00:28:11;;;;;;;16.57;11.07;;;-2.00;99.90;;;-141.84;97.05;30066.31;5013452;28;20210;-75
2023/12/02 00:30:40;;;;;;;17.03;11.13;;;-2.00;99.90;;;-141.84;95.31;25842.41;5009812;28;20230;-71
2023/12/02 00:33:09;;;;;;;18.03;11.27;;;-2.00;99.90;;;-141.84;96.44;27515.94;5003996;28;20280;-70
2023/12/02 00:35:36;;;;;;;16.77;10.77;;;-2.10;99.90;;;-141.84;97.24;31772.25;5012287;28;20610;-76
2023/12/02 00:38:04;;;;;;;18.20;11.17;;;-2.00;99.90;;;-141.84;98.59;39788.03;5012399;28;20317;-78
2023/12/02 00:40:32;;;;;;;16.10;10.07;;;-2.10;99.90;;;-141.84;96.78;33572.75;5012434;28;20206;-70
2023/12/02 00:43:01;;;;;;;14.77;10.13;;;-2.00;99.90;;;-141.84;93.63;22591.03;5010719;28;20258;-71
2023/12/02 00:45:30;;;;;;;16.20;10.33;;;-1.90;99.90;;;-141.84;92.88;20586.22;4999932;28;20247;-73
2023/12/02 00:47:58;;;;;;;14.33;10.00;;;-2.00;99.90;;;-141.84;93.92;22503.56;5011803;28;20226;-69
2023/12/02 00:50:27;;;;;;;14.53;9.93;;;-1.90;99.90;;;-141.84;94.32;22694.75;5011187;28;20613;-77
2023/12/02 00:52:56;;;;;;;14.17;9.93;;;-1.90;99.90;;;-141.84;94.08;22536.13;5011842;28;20261;-77
2023/12/02 00:55:25;;;;;;;13.80;9.73;;;-1.90;99.90;;;-141.84;93.84;22513.75;5011545;28;20640;-74
2023/12/02 00:57:53;;;;;;;15.03;10.23;;;-1.90;99.90;;;-141.84;93.73;21974.84;5013371;28;20561;-75
2023/12/02 01:00:22;;;;;;;15.23;10.13;;;-1.90;99.90;;;-141.84;93.61;21765.38;5009371;28;20226;-79
2023/12/02 01:02:52;;;;;;;14.73;10.20;;;-1.90;99.90;;;-141.84;93.30;21192.03;5011380;28;20235;-73
2023/12/02 01:05:20;;;;;;;17.80;11.27;;;-2.00;99.90;;;-141.84;94.92;23404.63;5011105;28;20230;-75
2023/12/02 01:07:49;;;;;;;18.97;10.90;;;-2.00;99.90;;;-141.84;96.17;27053.72;5011230;28;20203;-71
2023/12/02 01:10:17;;;;;;;21.20;11.73;;;-2.00;99.90;;;-141.84;95.33;27159.59;5011405;28;20226;-76
2023/12/02 01:12:45;;;;;;;17.43;11.70;;;-1.90;99.90;;;-141.84;92.70;20998.88;5011463;28;20642;-74
2023/12/02 01:15:13;;;;;;;17.97;11.13;;;-1.90;99.90;;;-141.84;92.70;21094.44;5010494;28;20673;-74
2023/12/02 01:17:42;;;;;;;19.83;12.20;;;-2.00;99.90;;;-141.84;94.01;21720.66;5011719;28;20230;-75
2023/12/02 01:20:12;;;;;;;18.03;11.53;;;-2.00;99.90;;;-141.84;97.05;29218.72;5010274;28;20260;-70
2023/12/02 01:22:40;;;;;;;19.60;11.73;;;-2.00;99.90;;;-141.84;97.98;35723.00;5011272;28;20198;-69
2023/12/02 01:25:09;;;;;;;18.10;11.33;;;-2.00;99.90;;;-141.84;96.39;30094.84;5011507;28;20261;-70
2023/12/02 01:27:37;;;;;;;19.27;12.03;;;-2.00;99.90;;;-141.84;97.18;30769.41;4991498;28;20702;-76
2023/12/02 01:30:07;;;;;;;19.33;12.00;;;-2.00;99.90;;;-141.84;97.17;32165.72;4992207;28;20235;-71
2023/12/02 01:32:35;;;;;;;18.90;11.70;;;-2.10;99.90;;;-141.84;97.78;36849.59;5010307;28;20233;-71
2023/12/02 01:35:03;;;;;;;19.33;11.77;;;-2.00;99.90;;;-141.84;97.60;34343.75;5010174;28;20227;-72
2023/12/02 01:37:33;;;;;;;19.60;12.57;;;-2.10;99.90;;;-141.84;97.17;32451.16;5009238;28;20229;-68
2023/12/02 01:40:01;;;;;;;16.40;10.90;;;-2.10;99.90;;;-141.84;95.77;26212.88;5010054;28;20338;-69
2023/12/02 01:42:29;;;;;;;15.77;10.73;;;-2.20;99.90;;;-141.84;95.29;25097.47;5009769;28;20280;-74
2023/12/02 01:44:58;;;;;;;18.30;12.00;;;-2.20;99.90;;;-141.84;95.26;25252.16;5010341;28;20242;-68
2023/12/02 01:47:26;;;;;;;18.27;12.60;;;-2.20;99.90;;;-141.84;95.81;25901.44;5010441;28;20305;-72
2023/12/02 01:49:57;;;;;;;18.83;12.17;;;-2.20;99.90;;;-141.84;97.03;29940.00;5008318;28;20249;-71
2023/12/02 01:52:25;;;;;;;18.47;11.50;;;-2.30;99.90;;;-141.84;96.42;29540.63;5008354;28;20213;-71
2023/12/02 01:54:55;;;;;;;17.70;11.57;;;-2.20;99.90;;;-141.84;96.29;27862.16;5007971;28;20313;-71
2023/12/02 01:57:24;;;;;;;18.87;11.93;;;-2.30;99.90;;;-141.84;95.69;27190.16;5007615;28;20317;-72
2023/12/02 01:59:55;;;;;;;17.80;11.50;;;-2.30;99.90;;;-141.84;95.48;25482.13;5007820;28;20702;-72
2023/12/02 02:02:25;;;;;;;17.37;11.07;;;-2.30;99.90;;;-141.84;94.00;22483.25;5008234;28;20308;-71
2023/12/02 02:04:53;;;;;;;15.73;10.50;;;-2.40;99.90;;;-141.84;95.33;24546.00;5008271;28;20207;-72
2023/12/02 02:07:22;;;;;;;19.00;11.13;;;-2.30;99.90;;;-141.84;93.61;21964.66;5008323;28;20210;-72
2023/12/02 02:09:50;;;;;;;16.30;10.63;;;-2.20;99.90;;;-141.84;93.47;21004.97;5007758;28;20310;-70
2023/12/02 02:12:20;;;;;;;19.03;11.70;;;-2.30;99.90;;;-141.84;94.19;22261.56;5007765;28;20309;-71
2023/12/02 02:14:48;;;;;;;18.77;11.37;;;-2.40;99.90;;;-141.84;95.35;23754.53;5007653;28;20233;-72
2023/12/02 02:17:17;;;;;;;16.43;11.33;;;-2.50;99.90;;;-141.84;95.81;25256.22;5007540;28;20649;-71
2023/12/02 02:19:45;;;;;;;19.47;11.60;;;-2.50;99.90;;;-141.84;96.30;27493.56;5007637;28;20223;-71
2023/12/02 02:22:14;;;;;;;15.67;10.77;;;-2.50;99.90;;;-141.84;97.59;31513.34;5008059;28;20212;-72
2023/12/02 02:24:43;;;;;;;16.63;10.70;;;-2.60;99.90;;;-141.84;97.33;33379.00;5007869;28;20242;-71
2023/12/02 02:27:11;;;;;;;16.57;10.50;;;-2.40;99.90;;;-141.84;96.76;29000.75;5008604;28;20506;-72
2023/12/02 02:29:39;;;;;;;17.73;11.40;;;-2.50;99.90;;;-141.84;98.56;38922.00;5008925;28;20317;-70
2023/12/02 02:32:08;;;;;;;17.30;10.73;;;-2.50;99.90;;;-141.84;99.32;44442.13;5008120;28;20242;-73
2023/12/02 02:34:36;;;;;;;17.73;11.33;;;-2.50;99.90;;;-141.84;98.03;38638.13;5008298;28;20214;-72
2023/12/02 02:37:04;;;;;;;17.57;11.10;;;-2.40;99.90;;;-141.84;98.23;37323.19;4987755;28;20789;-72
2023/12/02 02:39:34;;;;;;;17.30;11.13;;;-2.50;99.90;;;-141.84;98.70;40378.44;4987954;28;20286;-71
2023/12/02 02:42:06;;;;;;;19.53;10.67;;;-2.50;99.90;;;-141.84;99.52;44965.75;4987803;28;20273;-71
2023/12/02 02:44:34;;;;;;;15.33;10.23;;;-2.60;99.90;;;-141.84;98.65;40691.03;5003190;28;20237;-71
2023/12/02 02:47:02;;;;;;;19.80;10.97;;;-2.60;99.90;;;-141.84;98.23;36527.09;5008238;28;20704;-71
2023/12/02 02:49:31;;;;;;;18.57;10.87;;;-2.60;99.90;;;-141.84;99.55;43918.63;5012615;28;20202;-72
2023/12/02 02:51:59;;;;;;;18.07;10.93;;;-2.70;99.90;;;-141.84;99.84;47060.84;5013403;28;20320;-71
2023/12/02 02:54:27;;;;;;;17.93;11.53;;;-2.60;99.90;;;-141.84;100.00;51516.59;5013557;28;20304;-71
2023/12/02 02:56:57;;;;;;;17.17;11.20;;;-2.60;99.90;;;-141.84;98.46;40778.88;5013581;28;20261;-72
2023/12/02 02:59:26;;;;;;;19.13;10.90;;;-2.50;99.90;;;-141.84;97.92;38050.03;5013181;28;20321;-72
2023/12/02 03:01:54;;;;;;;19.13;11.90;;;-2.60;99.90;;;-141.84;96.20;28892.78;5013227;28;20233;-71
2023/12/02 03:04:22;;;;;;;19.67;12.27;;;-2.50;99.90;;;-141.84;95.19;24025.13;5014132;28;20206;-72
2023/12/02 03:06:50;;;;;;;19.07;11.97;;;-2.60;99.90;;;-141.84;95.33;24820.72;5013589;28;20335;-71
2023/12/02 03:09:19;;;;;;;19.87;12.30;;;-2.60;99.90;;;-141.84;96.24;26768.66;5014028;28;20231;-71
2023/12/02 03:11:48;;;;;;;16.37;10.40;;;-2.60;99.90;;;-141.84;97.62;32271.75;5014208;28;20318;-70
2023/12/02 03:14:18;;;;;;;17.87;11.07;;;-2.60;99.90;;;-141.84;96.44;30123.38;5013980;28;20232;-72
2023/12/02 03:16:46;;;;;;;17.67;11.03;;;-2.60;99.90;;;-141.84;96.97;28845.94;5014456;28;20212;-72
2023/12/02 03:19:14;;;;;;;18.57;11.43;;;-2.60;99.90;;;-141.84;98.82;40255.84;5016130;28;20214;-71
2023/12/02 03:21:43;;;;;;;15.67;10.73;;;-2.60;99.90;;;-141.84;96.87;30225.28;5015628;28;20533;-71
2023/12/02 03:24:11;;;;;;;16.83;10.97;;;-2.50;99.90;;;-141.84;94.17;22871.72;5015361;28;20305;-72
2023/12/02 03:26:39;;;;;;;19.90;11.57;;;-2.50;99.90;;;-141.84;94.80;23217.50;5015744;28;20313;-72
2023/12/02 03:29:07;;;;;;;17.40;10.60;;;-2.50;99.90;;;-141.84;96.52;27862.16;5015011;28;20233;-71
2023/12/02 03:31:37;;;;;;;17.07;10.80;;;-2.50;99.90;;;-141.84;95.43;25081.19;5014440;28;20209;-71
2023/12/02 03:34:05;;;;;;;17.20;10.60;;;-2.50;99.90;;;-141.84;95.10;24096.34;5014660;28;20682;-72
2023/12/02 03:36:33;;;;;;;16.87;10.53;;;-2.50;99.90;;;-141.84;96.39;26483.66;5012843;28;20222;-70
2023/12/02 03:39:02;;;;;;;15.20;9.73;;;-2.60;99.90;;;-141.84;98.07;34413.13;5013351;28;20230;-72
2023/12/02 03:41:30;;;;;;;16.40;10.70;;;-2.70;99.90;;;-141.84;96.17;27469.13;5013203;28;20721;-71
2023/12/02 03:43:58;;;;;;;17.10;10.80;;;-2.60;99.90;;;-141.84;96.24;27275.66;5014036;28;20226;-73
2023/12/02 03:46:29;;;;;;;18.67;11.17;;;-2.60;99.90;;;-141.84;96.40;27098.50;5014664;28;20297;-71
2023/12/02 03:48:58;;;;;;;18.07;10.80;;;-2.70;99.90;;;-141.84;94.31;22680.53;5006987;28;20250;-72
2023/12/02 03:51:27;;;;;;;18.63;11.20;;;-2.70;99.90;;;-141.84;93.74;21549.84;5007666;28;20281;-71
2023/12/02 03:53:55;;;;;;;18.80;10.13;;;-2.70;99.90;;;-141.84;94.57;22550.34;5017149;28;20293;-72
2023/12/02 03:56:23;;;;;;;16.67;10.47;;;-2.60;99.90;;;-141.84;96.67;27572.97;5015083;28;20768;-71
2023/12/02 03:58:51;;;;;;;14.77;9.47;;;-2.60;99.90;;;-141.84;95.63;25626.66;5012555;28;20522;-72
2023/12/02 04:01:20;;;;;;;14.47;9.83;;;-2.50;99.90;;;-141.84;95.06;24391.38;5014476;28;20280;-71
2023/12/02 04:03:49;;;;;;;13.83;9.20;;;-2.50;99.90;;;-141.84;95.53;24411.72;5012865;28;20301;-71
2023/12/02 04:06:18;;;;;;;15.07;9.33;;;-2.50;99.90;;;-141.84;96.83;29783.09;5013378;28;20262;-71
2023/12/02 04:08:46;;;;;;;16.33;9.73;;;-2.50;99.90;;;-141.84;96.53;28116.72;5013796;28;20634;-71
2023/12/02 04:11:15;;;;;;;17.90;10.47;;;-2.60;99.90;;;-141.84;95.47;25229.78;5012762;28;20264;-73
2023/12/02 04:13:43;;;;;;;15.90;9.90;;;-2.60;99.90;;;-141.84;97.05;29153.53;5012509;28;20507;-71
2023/12/02 04:16:11;;;;;;;15.40;9.30;;;-2.70;99.90;;;-141.84;97.85;33858.28;5012687;28;20393;-71
2023/12/02 04:18:39;;;;;;;15.17;9.73;;;-2.60;99.90;;;-141.84;99.07;43133.44;5011892;28;20229;-71
2023/12/02 04:21:09;;;;;;;15.73;10.27;;;-2.60;99.90;;;-141.84;97.60;36159.72;5012008;28;20764;-72
2023/12/02 04:23:39;;;;;;;15.67;9.70;;;-2.50;99.90;;;-141.84;97.26;31978.16;5011949;28;20226;-71
2023/12/02 04:26:07;;;;;;;14.90;9.70;;;-2.60;99.90;;;-141.84;97.90;36725.09;5011760;28;20633;-71
2023/12/02 04:28:36;;;;;;;15.47;10.20;;;-2.50;99.90;;;-141.84;97.35;33511.56;5010546;28;20199;-72
2023/12/02 04:31:05;;;;;;;17.20;10.83;;;-2.50;99.90;;;-141.84;96.60;29846.25;4992293;28;20326;-71
2023/12/02 04:33:33;;;;;;;16.57;10.10;;;-2.40;99.90;;;-141.84;96.27;28222.63;5007477;28;20238;-71
2023/12/02 04:36:02;;;;;;;15.60;10.20;;;-2.50;99.90;;;-141.84;96.91;30588.00;5011520;28;20235;-71
2023/12/02 04:38:32;;;;;;;17.70;10.27;;;-2.60;99.90;;;-141.84;95.92;26493.81;4992362;28;20235;-72
2023/12/02 04:41:01;;;;;;;16.00;9.60;;;-2.50;99.90;;;-141.84;95.35;25014.03;4992148;28;20687;-72
2023/12/02 04:43:32;;;;;;;16.73;10.97;;;-2.50;99.90;;;-141.84;95.76;26109.06;4998629;28;20750;-72
2023/12/02 04:46:00;;;;;;;17.70;11.00;;;-2.50;99.90;;;-141.84;95.19;24405.59;5011327;28;20254;-73
2023/12/02 04:48:33;;;;;;;17.40;10.77;;;-2.50;99.90;;;-141.84;96.21;27051.69;5011173;28;20292;-71
2023/12/02 04:51:02;;;;;;;17.83;10.77;;;-2.50;99.90;;;-141.84;97.89;33101.63;5011680;28;20226;-72
2023/12/02 04:53:30;;;;;;;17.20;11.60;;;-2.60;99.90;;;-141.84;97.36;35474.03;5011284;28;20640;-71
2023/12/02 04:55:58;;;;;;;16.33;10.00;;;-2.50;99.90;;;-141.84;96.33;28216.53;5011600;28;20333;-71
2023/12/02 04:58:28;;;;;;;17.37;11.03;;;-2.40;99.90;;;-141.84;97.19;31580.63;5011610;28;20294;-73
2023/12/02 05:00:56;;;;;;;16.77;10.57;;;-2.40;99.90;;;-141.84;95.83;26571.19;5011158;28;20685;-73
2023/12/02 05:03:24;;;;;;;17.27;10.97;;;-2.40;99.90;;;-141.84;96.22;28149.31;5011856;28;20257;-71
2023/12/02 05:05:52;;;;;;;16.43;10.50;;;-2.40;99.90;;;-141.84;97.53;32198.34;5011202;28;20229;-71
2023/12/02 05:08:20;;;;;;;16.43;10.47;;;-2.40;99.90;;;-141.84;99.16;41825.19;5011530;28;20264;-72
2023/12/02 05:10:48;;;;;;;17.90;10.73;;;-2.50;99.90;;;-141.84;100.00;50992.13;5011683;28;20205;-72
2023/12/02 05:13:17;;;;;;;15.87;10.17;;;-2.50;99.90;;;-141.84;100.00;56502.53;5011482;28;20285;-72
2023/12/02 05:15:46;;;;;;;17.33;10.27;;;-2.40;99.90;;;-141.84;98.98;45227.56;5011900;28;20439;-71
2023/12/02 05:18:15;;;;;;;16.17;10.73;;;-2.40;99.90;;;-141.84;98.49;39769.66;5011538;28;20229;-72
2023/12/02 05:20:43;;;;;;;15.30;9.97;;;-2.40;99.90;;;-141.84;98.78;43918.63;5011325;28;20293;-72
2023/12/02 05:23:11;;;;;;;15.53;9.60;;;-2.40;99.90;;;-141.84;95.69;27206.44;5011967;28;20309;-72
2023/12/02 05:25:39;;;;;;;16.97;10.37;;;-2.30;99.90;;;-141.84;95.88;26392.03;5011803;28;20206;-71
2023/12/02 05:28:07;;;;;;;15.50;10.37;;;-2.30;99.90;;;-141.84;94.02;23941.72;5012273;28;20203;-72
2023/12/02 05:30:36;;;;;;;16.33;10.13;;;-2.30;99.90;;;-141.84;92.21;20464.25;5012429;28;20246;-72
2023/12/02 05:33:06;;;;;;;14.33;9.43;;;-2.20;99.90;;;-141.84;92.74;20602.47;5012131;28;20231;-72
2023/12/02 05:35:34;;;;;;;15.73;10.00;;;-2.20;99.90;;;-141.84;93.83;21592.56;5012029;28;20253;-72
2023/12/02 05:38:03;;;;;;;15.40;9.30;;;-2.30;99.90;;;-141.84;94.97;23842.03;5007391;28;20254;-71
2023/12/02 05:40:31;;;;;;;15.17;9.13;;;-2.30;99.90;;;-141.84;94.74;22900.19;5010689;28;20306;-72
2023/12/02 05:42:59;;;;;;;12.17;8.77;;;-2.30;99.90;;;-141.84;94.81;23604.00;5011079;28;20606;-72
2023/12/02 05:45:27;;;;;;;12.80;8.93;;;-2.30;99.90;;;-141.84;95.46;24759.66;5012999;28;20237;-71
2023/12/02 05:47:55;;;;;;;12.53;8.63;;;-2.50;99.90;;;-141.84;94.83;23931.53;5013255;28;20232;-72
2023/12/02 05:50:25;;;;;;;14.03;8.97;;;-2.40;99.90;;;-141.84;93.68;22066.34;5014819;28;20289;-71
2023/12/02 05:52:54;;;;;;;13.93;8.70;;;-2.40;99.90;;;-141.84;93.01;21295.72;5012138;28;20229;-72
2023/12/02 05:55:22;;;;;;;12.33;8.33;;;-2.40;99.90;;;-141.84;94.51;22550.34;5012144;28;20237;-72
2023/12/02 05:57:52;;;;;;;12.70;8.53;;;-2.50;99.90;;;-141.84;96.83;27986.38;5011490;28;20314;-72
2023/12/02 06:00:20;;;;;;;13.23;9.27;;;-2.40;99.90;;;-141.84;97.51;32078.06;5012185;28;20705;-72
2023/12/02 06:02:48;;;;;;;12.90;8.90;;;-2.50;99.90;;;-141.84;95.96;27758.28;5012242;28;20582;-73
2023/12/02 06:05:17;;;;;;;12.27;8.30;;;-2.40;99.90;;;-141.84;96.03;26210.84;5011533;28;20254;-73
2023/12/02 06:07:46;;;;;;;13.63;8.87;;;-2.40;99.90;;;-141.84;94.00;22391.72;5012050;28;20293;-71
2023/12/02 06:10:15;;;;;;;12.90;8.83;;;-2.40;99.90;;;-141.84;94.01;22082.63;5012088;28;20253;-74
2023/12/02 06:12:43;;;;;;;15.47;9.67;;;-2.40;99.90;;;-141.84;93.81;22143.63;5011080;28;20261;-72
2023/12/02 06:15:11;;;;;;;16.30;10.10;;;-2.40;99.90;;;-141.84;95.05;23821.69;5010791;28;20256;-75
2023/12/02 06:17:40;;;;;;;16.37;9.07;;;-2.30;99.90;;;-141.84;95.30;25392.59;5010215;28;20234;-73
2023/12/02 06:20:11;;;;;;;14.57;9.70;;;-2.40;99.90;;;-141.84;96.28;26896.94;5010282;28;20230;-72
2023/12/02 06:22:39;;;;;;;13.80;9.40;;;-2.40;99.90;;;-141.84;97.39;32516.41;5011924;28;20233;-72
2023/12/02 06:25:09;;;;;;;14.67;9.50;;;-2.40;99.90;;;-141.84;95.46;26373.72;5014190;28;20858;-73
2023/12/02 06:27:38;;;;;;;14.50;10.27;;;-2.40;99.90;;;-141.84;94.83;24071.91;5014198;28;20231;-72
2023/12/02 06:30:09;;;;;;;14.97;10.00;;;-2.40;99.90;;;-141.84;95.81;26225.09;5014151;28;20238;-73
2023/12/02 06:32:41;;;;;;;15.87;9.70;;;-2.40;99.90;;;-141.84;96.00;27269.56;5013867;28;20240;-72
2023/12/02 06:35:10;;;;;;;14.33;10.23;;;-2.40;99.90;;;-141.84;96.87;29679.19;5014146;28;20288;-72
2023/12/02 06:37:38;;;;;;;13.20;9.43;;;-2.40;99.90;;;-141.84;98.93;39941.25;5013980;28;20293;-72
2023/12/02 06:40:10;;;;;;;12.63;8.87;;;-2.50;99.90;;;-141.84;99.89;49157.03;5014341;28;20302;-73
2023/12/02 06:42:38;;;;;;;15.07;9.47;;;-2.50;99.90;;;-141.84;99.00;42610.09;5013698;28;20661;-72
2023/12/02 06:45:08;;;;;;;14.03;8.67;;;-2.50;99.90;;;-141.84;98.45;42086.81;5013804;28;20230;-72
2023/12/02 06:47:36;;;;;;;13.10;8.87;;;-2.50;99.90;;;-141.84;96.74;30416.81;5013860;28;20236;-72
2023/12/02 06:50:05;;;;;;;14.03;9.60;;;-2.40;99.90;;;-141.84;98.07;36427.09;5014030;28;20226;-72
2023/12/02 06:52:34;;;;;;;14.57;9.23;;;-2.50;99.90;;;-141.84;96.42;31158.69;5013932;28;20607;-72
2023/12/02 06:55:03;;;;;;;14.37;9.63;;;-2.40;99.90;;;-141.84;94.49;23846.09;5014430;28;20226;-72
2023/12/02 06:57:36;;;;;;;15.53;9.77;;;-2.30;99.90;;;-141.84;95.65;25362.06;5014467;28;20306;-73
2023/12/02 07:00:06;;;;;;;17.43;9.83;;;-2.40;99.90;;;-141.84;97.79;35006.78;5013416;28;20234;-72
2023/12/02 07:02:34;;;;;;;17.10;10.93;;;-2.40;99.90;;;-141.84;97.62;36074.00;5013727;28;20249;-72
2023/12/02 07:05:03;;;;;;;16.57;10.60;;;-2.40;99.90;;;-141.84;97.85;36392.38;5013621;28;20757;-73
2023/12/02 07:07:31;;;;;;;16.67;11.40;;;-2.40;99.90;;;-141.84;96.87;29966.47;5014521;28;20694;-71
2023/12/02 07:10:00;;;;;;;17.00;10.60;;;-2.40;99.90;;;-141.84;97.80;36502.59;5013767;28;20258;-72
2023/12/02 07:12:28;;;;;;;18.93;10.77;;;-2.50;99.90;;;-141.84;95.44;25704.00;5013452;28;20222;-72
2023/12/02 07:14:58;;;;;;;17.50;10.40;;;-2.40;99.90;;;-141.84;95.78;26707.59;5013175;28;20227;-72
2023/12/02 07:17:26;;;;;;;16.07;11.27;;;-2.40;99.90;;;-141.84;96.33;27232.91;5013016;28;20750;-74
2023/12/02 07:19:54;;;;;;;15.60;10.37;;;-2.50;99.90;;;-141.84;97.91;34143.84;5013172;28;20622;-72
2023/12/02 07:22:22;;;;;;;17.70;11.00;;;-2.60;99.90;;;-141.84;98.61;40719.63;5013152;28;20249;-72
2023/12/02 07:24:50;;;;;;;17.23;10.80;;;-2.50;99.90;;;-141.84;97.12;31331.94;5013028;28;20225;-71
2023/12/02 07:27:18;;;;;;;17.83;11.20;;;-2.50;99.90;;;-141.84;96.06;27365.25;5012850;28;20238;-73
2023/12/02 07:29:47;;;;;;;16.27;10.57;;;-2.50;99.90;;;-141.84;96.15;28039.34;5012493;28;20469;-72
2023/12/02 07:32:19;;;;;;;16.27;9.70;;;-2.60;99.90;;;-141.84;95.31;25557.44;5016452;28;20309;-72
2023/12/02 07:34:47;;;;;;;16.53;10.00;;;-2.40;99.90;;;-141.84;94.51;23512.44;5012577;28;20206;-73
2023/12/02 07:37:16;;;;;;;15.73;9.37;;;-2.40;99.90;;;-141.84;94.57;23331.41;5012707;28;20312;-72
2023/12/02 07:39:44;;;;;;;15.90;10.40;;;-2.40;99.90;;;-141.84;94.71;23477.88;5012707;28;20316;-71
2023/12/02 07:42:12;;;;;;;16.17;9.77;;;-2.40;99.90;;;-141.84;96.81;28273.56;5012529;28;20265;-73
2023/12/02 07:44:40;;;;;;;16.43;10.03;;;-2.50;99.90;;;-141.84;96.31;28173.75;5012254;28;20254;-72
2023/12/02 07:47:08;;;;;;;16.83;9.87;;;-2.40;99.90;;;-141.84;97.14;31967.97;5012831;28;20230;-72
2023/12/02 07:49:38;;;;;;;17.97;11.10;;;-2.30;99.90;;;-141.84;95.83;27100.56;5012861;28;20206;-72
2023/12/02 07:52:06;;;;;;;17.40;11.00;;;-2.40;99.90;;;-141.84;93.76;22747.63;5013038;28;20749;-72
2023/12/02 07:54:34;;;;;;;18.27;10.57;;;-2.40;99.90;;;-141.84;91.16;19752.88;5012365;28;20613;-73
2023/12/02 07:57:03;;;;;;;19.43;11.73;;;-2.30;99.90;;;-141.84;92.51;20387.00;5012444;28;20322;-72
2023/12/02 07:59:31;;;;;;;18.47;10.67;;;-2.30;99.90;;;-141.84;93.08;21202.19;5011999;28;20317;-72
2023/12/02 08:02:00;;;;;;;18.17;11.33;;;-2.30;99.90;;;-141.84;91.32;19769.13;5012272;28;20699;-73
2023/12/02 08:04:28;;;;;;;18.13;10.33;;;-2.20;99.90;;;-141.84;92.37;20389.03;5012601;28;20206;-73
2023/12/02 08:06:58;;;;;;;20.07;12.10;;;-2.20;99.90;;;-141.84;91.48;19758.97;5015928;28;20231;-73
2023/12/02 08:09:26;;;;;;;19.23;12.10;;;-2.20;99.90;;;-141.84;91.76;20047.56;5012742;28;20314;-73
2023/12/02 08:11:54;;;;;;;19.00;11.33;;;-2.20;99.90;;;-141.84;93.74;21558.00;5012534;28;20292;-74
2023/12/02 08:14:23;;;;;;;19.40;11.97;;;-2.20;99.90;;;-141.84;91.85;20244.72;5012165;28;20285;-73
2023/12/02 08:16:51;;;;;;;21.63;11.57;;;-2.10;99.90;;;-141.84;92.26;20281.31;5012240;28;20747;-74
2023/12/02 08:19:19;;;;;;;21.90;12.07;;;-2.20;99.90;;;-141.84;93.10;21090.38;5013162;28;20568;-74
2023/12/02 08:21:47;;;;;;;19.60;12.03;;;-2.10;99.90;;;-141.84;92.92;20754.94;5012323;28;20760;-74
2023/12/02 08:24:17;;;;;;;17.97;10.83;;;-2.20;99.90;;;-141.84;94.25;22863.56;5012053;28;20660;-74
2023/12/02 08:26:47;;;;;;;18.13;11.83;;;-2.10;99.90;;;-141.84;93.66;21964.66;5011956;28;20309;-73
2023/12/02 08:29:15;;;;;;;22.00;12.37;;;-2.00;99.90;;;-141.84;94.21;22861.53;5011756;28;20262;-74
2023/12/02 08:31:43;;;;;;;22.30;14.50;;;-2.00;99.90;;;-141.84;94.74;24177.72;5011258;28;20331;-72
2023/12/02 08:34:12;;;;;;;18.43;12.23;;;-1.90;99.90;;;-141.84;92.88;21391.28;5012659;28;20195;-73
2023/12/02 08:36:43;;;;;;;17.37;11.70;;;-1.80;99.90;;;-141.84;91.71;20126.84;5011502;28;20226;-72
2023/12/02 08:39:11;;;;;;;16.63;11.73;;;-1.90;99.90;;;-141.84;92.65;21096.47;5011844;28;20321;-73
2023/12/02 08:41:41;;;;;;;16.70;10.17;;;-1.80;99.90;;;-141.84;90.58;19734.56;5011743;28;20276;-72
2023/12/02 08:44:10;;;;;;;13.80;9.57;;;-1.70;99.90;;;-141.84;89.09;18964.41;5010962;28;20737;-73
2023/12/02 08:46:42;;;;;;;17.40;10.93;;;-1.70;99.90;;;-141.84;87.65;18749.03;5010819;28;20206;-73
2023/12/02 08:49:10;;;;;;;22.33;12.67;;;-1.70;99.90;;;-141.84;86.93;18645.41;5012132;28;20208;-73
2023/12/02 08:51:39;;;;;;;18.33;11.73;;;-1.80;99.90;;;-141.84;86.72;18598.69;4999722;28;20655;-73
2023/12/02 08:54:07;;;;;;;15.93;10.33;;;-1.80;99.90;;;-141.84;87.69;18684.00;4992079;28;20236;-74
2023/12/02 08:56:36;;;;;;;18.90;11.57;;;-1.80;99.90;;;-141.84;86.21;18574.28;4991861;28;20231;-73
2023/12/02 08:59:05;;;;;;;17.53;10.63;;;-1.80;99.90;;;-141.84;85.95;18566.16;5003297;28;20280;-72
2023/12/02 09:01:34;;;;;;;17.07;10.63;;;-1.80;99.90;;;-141.84;86.11;18562.09;5011831;28;20293;-72
2023/12/02 09:04:03;;;;;;;19.63;10.93;;;-1.80;99.90;;;-141.84;85.98;18562.09;4991708;28;20959;-72
2023/12/02 09:06:33;;;;;;;17.70;11.23;;;-1.80;99.90;;;-141.84;86.49;18576.31;5004153;28;20305;-72
2023/12/02 09:09:01;;;;;;;18.87;11.47;;;-1.80;99.90;;;-141.84;85.31;18513.34;5009721;28;20227;-72
2023/12/02 09:11:29;;;;;;;17.77;11.03;;;-1.80;99.90;;;-141.84;87.41;18677.91;5010982;28;20314;-74
2023/12/02 09:13:58;;;;;;;18.67;11.23;;;-1.80;99.90;;;-141.84;86.46;18633.22;5008795;28;20261;-72
2023/12/02 09:16:30;;;;;;;19.90;12.07;;;-1.80;99.90;;;-141.84;86.16;18602.75;5007615;28;20206;-72
2023/12/02 09:18:58;;;;;;;18.77;11.93;;;-1.80;99.90;;;-141.84;83.90;18446.31;5007784;28;20226;-75
2023/12/02 09:21:43;;;;;;;21.63;12.20;;;-1.70;99.90;;;-141.84;85.50;18566.16;5011327;28;20229;-73
2023/12/02 09:24:38;;;;;;;23.47;13.17;;;-1.80;99.90;;;-141.84;85.66;18525.53;5011887;28;20284;-73
2023/12/02 09:27:08;;;;;;;22.27;13.00;;;-1.70;99.90;;;-141.84;85.58;18556.00;5012131;28;20321;-72
2023/12/02 09:29:40;;;;;;;21.63;12.73;;;-1.60;99.90;;;-141.84;82.21;18436.16;5011285;28;20261;-71
2023/12/02 09:32:45;;;;;;;21.23;12.30;;;-1.50;99.90;;;-141.84;83.83;18460.53;5011605;28;20230;-73
2023/12/02 09:35:13;;;;;;;23.63;12.70;;;-1.60;99.90;;;-141.84;83.71;18432.09;5008129;28;20225;-81
2023/12/02 09:37:55;;;;;;;20.27;12.30;;;-1.70;99.90;;;-141.84;84.37;18491.00;5015816;28;20265;-74
2023/12/02 09:41:18;;;;;;;23.40;13.30;;;-1.50;99.90;;;-141.84;82.79;18454.44;5009521;28;20531;-77
2023/12/02 09:44:13;;;;;;;22.10;12.90;;;-1.40;99.90;;;-141.84;80.96;18393.47;4982773;28;20648;-78
2023/12/02 09:47:01;;;;;;;19.97;11.83;;;-1.40;99.90;;;-141.84;80.80;18407.69;4996039;28;20742;-76
2023/12/02 09:50:07;;;;;;;21.00;13.03;;;-1.30;99.90;;;-141.84;80.91;18411.75;5005099;28;20199;-76
2023/12/02 09:52:56;;;;;;;19.40;11.70;;;-1.40;99.90;;;-141.84;82.32;18436.16;5004492;28;20222;-81
2023/12/02 09:55:37;;;;;;;22.97;12.10;;;-1.30;99.90;;;-141.84;81.05;18419.88;5004501;28;20214;-81
2023/12/02 09:58:22;;;;;;;20.83;12.23;;;-1.20;99.90;;;-141.84;78.13;18369.09;5011027;28;20224;-78
2023/12/02 10:00:55;;;;;;;20.33;12.03;;;-1.00;99.90;;;-141.84;78.99;18397.53;5012085;28;20222;-77
2023/12/02 10:03:45;;;;;;;18.43;11.50;;;-0.90;99.90;;;-141.84;75.77;18419.88;5021025;28;20268;-77
2023/12/02 10:06:47;;;;;;;19.37;11.67;;;-0.90;99.90;;;-141.84;76.29;18379.25;5001036;28;20280;-80